createdAt,value
2019-01-04T00:01:31.165Z,99543.51
2019-01-04T00:04:02.651Z,99541.02
2019-01-04T00:06:31.948Z,99541.02
2019-01-04T00:09:01.374Z,99537.80
2019-01-04T00:11:30.686Z,99532.16
2019-01-04T00:14:18.123Z,99526.83
2019-01-04T00:16:47.612Z,99529.97
2019-01-04T00:19:16.882Z,99516.14
2019-01-04T00:22:04.386Z,99517.78
2019-01-04T00:24:33.964Z,99523.99
2019-01-04T00:27:03.441Z,99527.54
2019-01-04T00:29:50.419Z,99527.54
2019-01-04T00:32:20.324Z,99528.26
2019-01-04T00:34:49.794Z,99528.26
2019-01-04T00:37:19.252Z,99539.91
2019-01-04T00:39:49.078Z,99543.48
2019-01-04T00:42:18.465Z,99543.48
2019-01-04T00:44:47.960Z,99537.77
2019-01-04T00:47:17.573Z,99532.64
2019-01-04T00:49:47.034Z,99524.74
2019-01-04T00:52:16.981Z,99522.94
2019-01-04T00:54:46.667Z,99514.39
2019-01-04T00:57:37.067Z,99514.64
2019-01-04T01:00:42.194Z,99508.98
2019-01-04T01:03:47.336Z,99508.98
2019-01-04T01:06:43.972Z,99530.00
2019-01-04T01:09:36.357Z,99533.24
2019-01-04T01:12:30.667Z,99533.24
2019-01-04T01:15:28.687Z,99531.27
2019-01-04T01:18:22.523Z,99528.16
2019-01-04T01:21:16.389Z,99535.44
2019-01-04T01:24:21.262Z,99550.30
2019-01-04T01:27:29.100Z,99536.48
2019-01-04T01:30:34.089Z,99526.37
2019-01-04T01:33:20.322Z,99526.37
2019-01-04T01:36:14.263Z,99531.47
2019-01-04T01:39:22.205Z,99529.22
2019-01-04T01:42:15.657Z,99544.45
2019-01-04T01:45:21.152Z,99546.27
2019-01-04T01:47:57.250Z,99550.38
2019-01-04T01:50:57.543Z,99550.38
2019-01-04T01:53:39.847Z,99564.56
2019-01-04T01:56:09.216Z,99559.19
2019-01-04T01:58:39.096Z,99559.19
2019-01-04T02:01:08.774Z,99557.03
2019-01-04T02:03:38.517Z,99556.69
2019-01-04T02:06:08.024Z,99556.69
2019-01-04T02:08:37.509Z,99564.11
2019-01-04T02:11:06.890Z,99568.34
2019-01-04T02:13:36.390Z,99569.16
2019-01-04T02:16:05.783Z,99562.53
2019-01-04T02:18:35.696Z,99558.33
2019-01-04T02:21:05.096Z,99552.95
2019-01-04T02:23:34.559Z,99551.16
2019-01-04T02:26:03.949Z,99551.16
2019-01-04T02:28:33.508Z,99556.63
2019-01-04T02:31:03.446Z,99562.50
2019-01-04T02:33:32.968Z,99570.88
2019-01-04T02:36:02.457Z,99570.73
2019-01-04T02:38:31.837Z,99558.96
2019-01-04T02:41:01.166Z,99556.84
2019-01-04T02:43:30.888Z,99546.75
2019-01-04T02:46:00.660Z,99559.50
2019-01-04T02:48:30.200Z,99555.31
2019-01-04T02:50:59.593Z,99560.15
2019-01-04T02:53:29.191Z,99563.58
2019-01-04T02:55:58.796Z,99561.86
2019-01-04T02:58:28.288Z,99560.09
2019-01-04T03:01:15.422Z,99556.52
2019-01-04T03:03:45.395Z,99556.52
2019-01-04T03:06:14.683Z,99545.83
2019-01-04T03:08:44.080Z,99548.70
2019-01-04T03:11:13.582Z,99549.81
2019-01-04T03:13:42.851Z,99549.81
2019-01-04T03:16:12.145Z,99550.31
2019-01-04T03:18:41.529Z,99544.44
2019-01-04T03:21:11.117Z,99545.63
2019-01-04T03:23:40.577Z,99545.63
2019-01-04T03:26:10.663Z,99540.52
2019-01-04T03:28:40.028Z,99552.34
2019-01-04T03:33:56.752Z,99545.03
2019-01-04T03:36:26.571Z,99557.20
2019-01-04T03:38:56.047Z,99552.22
2019-01-04T03:41:25.333Z,99537.94
2019-01-04T03:43:54.865Z,99546.13
2019-01-04T03:46:24.299Z,99546.73
2019-01-04T03:48:54.850Z,99541.58
2019-01-04T03:51:24.417Z,99535.25
2019-01-04T03:53:53.740Z,99532.94
2019-01-04T03:56:48.136Z,99538.99
2019-01-04T03:59:17.667Z,99538.52
2019-01-04T04:01:47.176Z,99538.52
2019-01-04T04:04:16.603Z,99529.72
2019-01-04T04:06:45.992Z,99529.72
2019-01-04T04:09:15.404Z,99518.09
2019-01-04T04:11:45.218Z,99501.31
2019-01-04T04:14:14.641Z,99498.36
2019-01-04T04:16:44.126Z,99500.44
2019-01-04T04:19:13.627Z,99502.06
2019-01-04T04:21:43.115Z,99510.73
2019-01-04T04:24:13.064Z,99509.86
2019-01-04T04:26:42.543Z,99513.30
2019-01-04T04:29:11.998Z,99513.30
2019-01-04T04:31:41.393Z,99515.27
2019-01-04T04:34:18.791Z,99515.27
2019-01-04T04:36:53.211Z,99529.37
2019-01-04T04:39:22.696Z,99536.75
2019-01-04T04:41:52.006Z,99537.09
2019-01-04T04:44:21.878Z,99529.75
2019-01-04T04:46:51.476Z,99516.90
2019-01-04T04:49:21.165Z,99510.59
2019-01-04T04:51:50.679Z,99514.98
2019-01-04T04:54:20.275Z,99513.80
2019-01-04T04:56:51.170Z,99521.03
2019-01-04T04:59:20.687Z,99525.03
2019-01-04T05:01:50.180Z,99525.03
2019-01-04T05:04:20.182Z,99519.43
2019-01-04T05:06:49.785Z,99518.48
2019-01-04T05:09:19.468Z,99508.59
2019-01-04T05:11:48.910Z,99508.59
2019-01-04T05:14:18.455Z,99503.00
2019-01-04T05:16:47.987Z,99506.42
2019-01-04T05:19:17.876Z,99506.42
2019-01-04T05:21:47.471Z,99510.44
2019-01-04T05:24:17.078Z,99513.95
2019-01-04T05:26:46.897Z,99516.02
2019-01-04T05:29:16.391Z,99523.40
2019-01-04T05:31:45.870Z,99523.40
2019-01-04T05:34:15.897Z,99521.80
2019-01-04T05:36:45.399Z,99521.80
2019-01-04T05:39:14.706Z,99504.50
2019-01-04T05:41:44.628Z,99501.02
2019-01-04T05:44:14.121Z,99506.34
2019-01-04T05:46:43.493Z,99501.78
2019-01-04T05:49:13.161Z,99504.27
2019-01-04T05:51:42.841Z,99503.00
2019-01-04T05:54:12.201Z,99502.19
2019-01-04T05:56:43.019Z,99498.22
2019-01-04T05:59:12.553Z,99498.22
2019-01-04T06:01:41.957Z,99502.77
2019-01-04T06:04:11.241Z,99500.02
2019-01-04T06:06:40.658Z,99497.98
2019-01-04T06:09:10.444Z,99498.22
2019-01-04T06:11:39.718Z,99486.80
2019-01-04T06:14:09.220Z,99486.97
2019-01-04T06:16:38.701Z,99486.97
2019-01-04T06:19:08.188Z,99476.23
2019-01-04T06:21:37.769Z,99475.23
2019-01-04T06:24:07.138Z,99485.91
2019-01-04T06:26:39.625Z,99475.78
2019-01-04T06:29:08.124Z,99479.97
2019-01-04T06:34:26.503Z,99491.59
2019-01-04T06:36:56.508Z,99494.70
2019-01-04T06:39:26.571Z,99482.33
2019-01-04T06:41:56.066Z,99478.44
2019-01-04T06:44:25.565Z,99479.86
2019-01-04T06:47:16.658Z,99480.56
2019-01-04T06:49:46.917Z,99480.56
2019-01-04T06:52:16.730Z,99479.41
2019-01-04T06:55:24.792Z,99482.89
2019-01-04T06:57:54.276Z,99482.39
2019-01-04T07:00:24.241Z,99500.59
2019-01-04T07:02:53.644Z,99492.47
2019-01-04T07:05:23.165Z,99502.52
2019-01-04T07:07:52.870Z,99502.52
2019-01-04T07:10:22.345Z,99502.16
2019-01-04T07:12:51.837Z,99494.70
2019-01-04T07:15:21.359Z,99494.70
2019-01-04T07:17:50.779Z,99490.70
2019-01-04T07:20:20.623Z,99491.86
2019-01-04T07:22:50.109Z,99496.77
2019-01-04T07:25:19.806Z,99499.38
2019-01-04T07:27:49.278Z,99496.86
2019-01-04T07:30:18.662Z,99499.13
2019-01-04T07:32:48.095Z,99499.13
2019-01-04T07:35:17.600Z,99498.29
2019-01-04T07:37:47.065Z,99498.29
2019-01-04T07:40:34.781Z,99494.92
2019-01-04T07:43:04.210Z,99487.19
2019-01-04T07:45:33.748Z,99492.16
2019-01-04T07:48:03.469Z,99490.02
2019-01-04T07:50:32.883Z,99493.16
2019-01-04T07:53:02.819Z,99503.54
2019-01-04T07:55:49.945Z,99506.20
2019-01-04T07:58:19.402Z,99506.20
2019-01-04T08:00:50.789Z,99507.78
2019-01-04T08:03:23.848Z,99495.06
2019-01-04T08:05:56.107Z,99495.06
2019-01-04T08:08:25.747Z,99486.72
2019-01-04T08:11:12.975Z,99477.23
2019-01-04T08:13:42.361Z,99480.17
2019-01-04T08:16:11.812Z,99480.17
2019-01-04T08:18:43.960Z,99492.96
2019-01-04T08:21:13.402Z,99492.96
2019-01-04T08:23:43.568Z,99489.47
2019-01-04T08:26:13.005Z,99498.03
2019-01-04T08:28:44.638Z,99497.37
2019-01-04T08:31:14.119Z,99500.59
2019-01-04T08:33:43.451Z,99502.85
2019-01-04T08:36:15.179Z,99493.29
2019-01-04T08:38:44.623Z,99490.80
2019-01-04T08:41:15.637Z,99490.80
2019-01-04T08:43:44.972Z,99497.41
2019-01-04T08:46:14.709Z,99502.52
2019-01-04T08:48:44.255Z,99507.21
2019-01-04T08:51:31.692Z,99495.23
2019-01-04T08:54:01.226Z,99490.81
2019-01-04T08:56:50.814Z,99490.81
2019-01-04T08:59:23.015Z,99470.52
2019-01-04T09:01:53.529Z,99475.98
2019-01-04T09:04:23.601Z,99482.59
2019-01-04T09:06:53.205Z,99472.42
2019-01-04T09:09:24.222Z,99480.16
2019-01-04T09:11:53.825Z,99480.16
2019-01-04T09:14:25.388Z,99474.81
2019-01-04T09:16:54.902Z,99472.45
2019-01-04T09:19:24.441Z,99462.94
2019-01-04T09:22:11.776Z,99459.84
2019-01-04T09:24:41.265Z,99464.61
2019-01-04T09:27:10.543Z,99462.35
2019-01-04T09:29:40.129Z,99460.54
2019-01-04T09:32:10.872Z,99455.93
2019-01-04T09:34:40.620Z,99455.93
2019-01-04T09:37:10.018Z,99450.77
2019-01-04T09:39:39.957Z,99454.55
2019-01-04T09:42:13.136Z,99454.55
2019-01-04T09:44:43.728Z,99449.89
2019-01-04T09:47:14.245Z,99435.59
2019-01-04T09:49:43.826Z,99437.34
2019-01-04T09:52:13.671Z,99437.34
2019-01-04T09:54:43.111Z,99430.66
2019-01-04T09:57:12.450Z,99433.20
2019-01-04T09:59:42.416Z,99433.20
2019-01-04T10:02:11.978Z,99417.66
2019-01-04T10:04:41.623Z,99418.66
2019-01-04T10:07:11.015Z,99418.66
2019-01-04T10:09:40.767Z,99412.65
2019-01-04T10:12:10.727Z,99412.65
2019-01-04T10:14:40.089Z,99419.75
2019-01-04T10:17:09.639Z,99419.00
2019-01-04T10:19:39.417Z,99409.23
2019-01-04T10:22:08.818Z,99409.23
2019-01-04T10:24:38.417Z,99404.55
2019-01-04T10:27:07.991Z,99388.53
2019-01-04T10:29:37.364Z,99388.53
2019-01-04T10:32:24.364Z,99390.44
2019-01-04T10:34:54.137Z,99377.54
2019-01-04T10:37:25.036Z,99371.35
2019-01-04T10:39:54.625Z,99356.58
2019-01-04T10:42:24.181Z,99347.63
2019-01-04T10:44:53.925Z,99347.63
2019-01-04T10:47:23.443Z,99342.20
2019-01-04T10:49:53.135Z,99354.84
2019-01-04T10:52:22.602Z,99349.30
2019-01-04T10:54:52.111Z,99350.91
2019-01-04T10:57:21.499Z,99343.98
2019-01-04T10:59:51.384Z,99343.42
2019-01-04T11:02:20.811Z,99348.36
2019-01-04T11:04:50.109Z,99348.36
2019-01-04T11:07:19.629Z,99346.00
2019-01-04T11:09:48.994Z,99346.00
2019-01-04T11:12:18.988Z,99337.01
2019-01-04T11:14:48.547Z,99333.45
2019-01-04T11:17:35.285Z,99332.00
2019-01-04T11:20:06.205Z,99333.63
2019-01-04T11:22:54.731Z,99329.59
2019-01-04T11:25:45.899Z,99342.19
2019-01-04T11:28:22.938Z,99327.14
2019-01-04T11:31:01.967Z,99323.53
2019-01-04T11:33:44.483Z,99320.36
2019-01-04T11:36:34.117Z,99316.63
2019-01-04T11:39:12.918Z,99309.38
2019-01-04T11:42:05.019Z,99309.38
2019-01-04T11:45:04.099Z,99309.08
2019-01-04T11:48:11.695Z,99301.52
2019-01-04T11:51:08.924Z,99301.52
2019-01-04T11:53:38.467Z,99310.80
2019-01-04T11:56:07.847Z,99308.48
2019-01-04T11:58:37.709Z,99297.09
2019-01-04T12:01:07.241Z,99292.50
2019-01-04T12:03:36.818Z,99296.64
2019-01-04T12:06:06.320Z,99288.84
2019-01-04T12:08:35.843Z,99285.91
2019-01-04T12:11:05.281Z,99285.91
2019-01-04T12:13:39.900Z,99277.19
2019-01-04T12:16:09.566Z,99266.02
2019-01-04T12:18:39.015Z,99265.38
2019-01-04T12:21:08.337Z,99272.97
2019-01-04T12:23:37.702Z,99274.05
2019-01-04T12:26:07.639Z,99279.59
2019-01-04T12:31:24.368Z,99285.82
2019-01-04T12:33:54.664Z,99286.59
2019-01-04T12:36:24.158Z,99279.27
2019-01-04T12:38:53.711Z,99279.27
2019-01-04T12:41:23.246Z,99275.84
2019-01-04T12:43:53.222Z,99269.60
2019-01-04T12:46:40.114Z,99266.98
2019-01-04T12:49:09.447Z,99267.86
2019-01-04T12:51:39.044Z,99262.27
2019-01-04T12:54:08.570Z,99257.92
2019-01-04T12:56:40.032Z,99251.81
2019-01-04T12:59:09.318Z,99247.98
2019-01-04T13:01:40.435Z,99240.92
2019-01-04T13:04:10.317Z,99231.48
2019-01-04T13:06:40.130Z,99242.66
2019-01-04T13:09:09.629Z,99242.48
2019-01-04T13:11:39.177Z,99233.98
2019-01-04T13:14:08.959Z,99240.50
2019-01-04T13:16:38.466Z,99242.03
2019-01-04T13:19:07.908Z,99243.11
2019-01-04T13:21:37.965Z,99239.42
2019-01-04T13:24:08.421Z,99239.42
2019-01-04T13:26:37.891Z,99240.19
2019-01-04T13:29:07.365Z,99240.19
2019-01-04T13:34:24.006Z,99222.47
2019-01-04T13:36:53.513Z,99222.47
2019-01-04T13:39:22.896Z,99210.05
2019-01-04T13:41:52.682Z,99198.50
2019-01-04T13:44:21.970Z,99203.99
2019-01-04T13:46:51.322Z,99200.58
2019-01-04T13:49:20.623Z,99196.23
2019-01-04T13:51:50.070Z,99195.53
2019-01-04T13:54:19.523Z,99195.53
2019-01-04T13:56:49.357Z,99190.32
2019-01-04T13:59:18.733Z,99198.84
2019-01-04T14:01:48.315Z,99198.84
2019-01-04T14:04:17.973Z,99201.87
2019-01-04T14:06:47.433Z,99201.87
2019-01-04T14:09:16.922Z,99214.41
2019-01-04T14:11:46.468Z,99210.33
2019-01-04T14:17:04.113Z,99211.92
2019-01-04T14:19:33.512Z,99211.92
2019-01-04T14:22:02.805Z,99206.22
2019-01-04T14:24:32.260Z,99222.31
2019-01-04T14:27:02.226Z,99211.80
2019-01-04T14:29:31.556Z,99202.22
2019-01-04T14:32:00.944Z,99199.36
2019-01-04T14:34:30.473Z,99207.38
2019-01-04T14:36:59.970Z,99207.38
2019-01-04T14:39:29.461Z,99187.19
2019-01-04T14:42:00.608Z,99187.19
2019-01-04T14:44:30.130Z,99176.16
2019-01-04T14:46:59.683Z,99176.73
2019-01-04T14:49:32.875Z,99166.47
2019-01-04T14:52:02.179Z,99166.47
2019-01-04T14:54:32.800Z,99157.52
2019-01-04T14:57:02.305Z,99157.52
2019-01-04T14:59:31.723Z,99169.39
2019-01-04T15:02:01.657Z,99162.59
2019-01-04T15:04:31.079Z,99165.76
2019-01-04T15:07:01.617Z,99172.55
2019-01-04T15:09:31.544Z,99194.70
2019-01-04T15:12:00.974Z,99184.87
2019-01-04T15:14:30.373Z,99212.62
2019-01-04T15:16:59.696Z,99218.37
2019-01-04T15:19:30.743Z,99215.13
2019-01-04T15:22:01.273Z,99204.45
2019-01-04T15:24:31.907Z,99204.45
2019-01-04T15:29:48.563Z,99203.30
2019-01-04T15:32:18.246Z,99180.55
2019-01-04T15:34:48.873Z,99185.11
2019-01-04T15:37:19.518Z,99184.02
2019-01-04T15:39:49.453Z,99183.19
2019-01-04T15:42:18.982Z,99183.19
2019-01-04T15:44:48.480Z,99170.49
2019-01-04T15:47:19.987Z,99167.19
2019-01-04T15:49:49.741Z,99161.79
2019-01-04T15:52:19.213Z,99159.43
2019-01-04T15:54:48.719Z,99161.38
2019-01-04T15:57:18.629Z,99163.74
2019-01-04T15:59:47.903Z,99166.70
2019-01-04T16:02:17.503Z,99174.73
2019-01-04T16:04:46.863Z,99186.67
2019-01-04T16:07:19.773Z,99180.75
2019-01-04T16:09:50.287Z,99180.75
2019-01-04T16:12:20.806Z,99175.92
2019-01-04T16:15:07.517Z,99172.34
2019-01-04T16:17:37.485Z,99154.00
2019-01-04T16:20:10.229Z,99165.73
2019-01-04T16:22:39.658Z,99165.00
2019-01-04T16:25:10.267Z,99156.16
2019-01-04T16:27:40.347Z,99156.16
2019-01-04T16:30:27.522Z,99135.91
2019-01-04T16:32:57.138Z,99127.59
2019-01-04T16:35:26.605Z,99142.45
2019-01-04T16:37:56.414Z,99144.96
2019-01-04T16:40:25.804Z,99144.96
2019-01-04T16:42:55.156Z,99127.59
2019-01-04T16:45:24.518Z,99127.59
2019-01-04T16:47:56.011Z,99134.91
2019-01-04T16:50:25.875Z,99142.77
2019-01-04T16:52:59.481Z,99115.08
2019-01-04T16:55:28.635Z,99121.82
2019-01-04T16:57:58.053Z,99121.82
2019-01-04T17:00:27.952Z,99120.58
2019-01-04T17:02:57.394Z,99120.58
2019-01-04T17:05:27.048Z,99104.30
2019-01-04T17:07:56.988Z,99114.27
2019-01-04T17:10:26.499Z,99105.54
2019-01-04T17:12:56.019Z,99105.54
2019-01-04T17:15:30.167Z,99101.09
2019-01-04T17:18:03.969Z,99107.22
2019-01-04T17:20:33.744Z,99104.25
2019-01-04T17:23:03.166Z,99099.09
2019-01-04T17:25:32.593Z,99096.48
2019-01-04T17:28:02.015Z,99104.22
2019-01-04T17:30:31.992Z,99108.15
2019-01-04T17:33:01.376Z,99108.15
2019-01-04T17:35:30.907Z,99098.17
2019-01-04T17:38:00.324Z,99105.70
2019-01-04T17:40:29.855Z,99116.46
2019-01-04T17:43:00.782Z,99116.46
2019-01-04T17:45:30.195Z,99105.72
2019-01-04T17:47:59.588Z,99103.13
2019-01-04T17:50:46.811Z,99103.13
2019-01-04T17:53:16.218Z,99099.88
2019-01-04T17:55:46.223Z,99106.27
2019-01-04T17:58:15.717Z,99106.27
2019-01-04T18:00:45.167Z,99099.32
2019-01-04T18:03:14.681Z,99105.86
2019-01-04T18:05:44.144Z,99104.72
2019-01-04T18:11:02.403Z,99102.72
2019-01-04T18:13:31.835Z,99101.63
2019-01-04T18:16:01.665Z,99107.78
2019-01-04T18:18:31.380Z,99108.73
2019-01-04T18:21:03.038Z,99108.72
2019-01-04T18:23:32.528Z,99108.72
2019-01-04T18:26:01.960Z,99107.73
2019-01-04T18:28:31.511Z,99107.73
2019-01-04T18:31:01.054Z,99117.22
2019-01-04T18:33:30.528Z,99120.28
2019-01-04T18:36:18.199Z,99118.25
2019-01-04T18:38:49.793Z,99117.45
2019-01-04T18:41:24.073Z,99122.41
2019-01-04T18:43:54.018Z,99122.41
2019-01-04T18:46:27.074Z,99128.67
2019-01-04T18:49:13.844Z,99128.67
2019-01-04T18:51:43.328Z,99127.23
2019-01-04T18:54:12.925Z,99127.23
2019-01-04T18:56:42.391Z,99132.61
2019-01-04T18:59:12.536Z,99132.12
2019-01-04T19:01:42.221Z,99132.12
2019-01-04T19:04:11.748Z,99139.00
2019-01-04T19:07:00.250Z,99125.25
2019-01-04T19:09:29.642Z,99128.72
2019-01-04T19:11:58.956Z,99123.05
2019-01-04T19:14:28.236Z,99122.38
2019-01-04T19:16:57.638Z,99127.28
2019-01-04T19:19:27.419Z,99123.05
2019-01-04T19:21:56.889Z,99120.85
2019-01-04T19:24:26.305Z,99120.85
2019-01-04T19:26:57.208Z,99124.03
2019-01-04T19:29:26.526Z,99121.01
2019-01-04T19:31:55.903Z,99121.01
2019-01-04T19:34:25.273Z,99120.86
2019-01-04T19:36:55.129Z,99123.62
2019-01-04T19:39:24.506Z,99128.30
2019-01-04T19:41:53.866Z,99123.51
2019-01-04T19:44:23.606Z,99130.64
2019-01-04T19:47:10.980Z,99121.91
2019-01-04T19:49:40.577Z,99116.40
2019-01-04T19:52:10.084Z,99116.40
2019-01-04T19:54:39.473Z,99110.69
2019-01-04T19:57:09.449Z,99105.41
2019-01-04T19:59:38.958Z,99105.41
2019-01-04T20:02:08.394Z,99108.31
2019-01-04T20:04:38.685Z,99115.53
2019-01-04T20:08:00.820Z,99114.92
2019-01-04T20:11:26.379Z,99109.11
2019-01-04T20:14:52.798Z,99118.89
2019-01-04T20:17:36.430Z,99121.23
2019-01-04T20:20:24.862Z,99116.06
2019-01-04T20:23:13.745Z,99114.36
2019-01-04T20:26:02.163Z,99114.36
2019-01-04T20:28:50.352Z,99114.17
2019-01-04T20:31:38.677Z,99111.52
2019-01-04T20:34:27.270Z,99119.46
2019-01-04T20:37:15.752Z,99118.13
2019-01-04T20:40:04.232Z,99110.39
2019-01-04T20:42:49.053Z,99106.61
2019-01-04T20:45:37.951Z,99111.86
2019-01-04T20:48:19.531Z,99111.86
2019-01-04T20:51:08.492Z,99110.05
2019-01-04T20:53:56.848Z,99106.84
2019-01-04T20:56:45.671Z,99112.13
2019-01-04T20:59:34.139Z,99112.31
2019-01-04T21:02:22.709Z,99112.31
2019-01-04T21:05:08.431Z,99107.48
2019-01-04T21:08:09.456Z,99101.44
2019-01-04T21:11:08.181Z,99107.59
2019-01-04T21:14:03.852Z,99100.67
2019-01-04T21:16:52.132Z,99096.86
2019-01-04T21:19:40.624Z,99090.17
2019-01-04T21:22:28.896Z,99090.17
2019-01-04T21:25:17.269Z,99085.38
2019-01-04T21:28:00.090Z,99091.50
2019-01-04T21:30:51.073Z,99087.41
2019-01-04T21:33:39.384Z,99081.10
2019-01-04T21:36:46.127Z,99083.05
2019-01-04T21:39:34.697Z,99087.76
2019-01-04T21:42:44.246Z,99087.76
2019-01-04T21:45:35.345Z,99062.32
2019-01-04T21:48:23.471Z,99066.51
2019-01-04T21:51:12.164Z,99068.48
2019-01-04T21:54:00.865Z,99065.23
2019-01-04T21:56:49.509Z,99065.23
2019-01-04T21:59:37.119Z,99064.14
2019-01-04T22:02:25.403Z,99068.82
2019-01-04T22:05:14.073Z,99063.94
2019-01-04T22:08:02.463Z,99063.94
2019-01-04T22:11:09.306Z,99059.22
2019-01-04T22:13:57.486Z,99059.22
2019-01-04T22:16:46.208Z,99051.36
2019-01-04T22:19:27.530Z,99053.72
2019-01-04T22:22:14.503Z,99049.61
2019-01-04T22:25:16.715Z,99043.98
2019-01-04T22:28:05.478Z,99044.61
2019-01-04T22:30:44.160Z,99033.98
2019-01-04T22:33:31.841Z,99042.03
2019-01-04T22:36:17.273Z,99031.86
2019-01-04T22:39:06.015Z,99023.77
2019-01-04T22:41:54.571Z,99023.77
2019-01-04T22:44:36.974Z,99037.91
2019-01-04T22:47:25.147Z,99034.15
2019-01-04T22:50:14.101Z,99032.90
2019-01-04T22:53:02.577Z,99026.23
2019-01-04T22:55:52.199Z,99030.20
2019-01-04T22:58:36.446Z,99027.23
2019-01-04T23:01:23.718Z,99024.48
2019-01-04T23:04:12.467Z,99024.48
2019-01-04T23:06:59.852Z,99015.22
2019-01-04T23:09:41.229Z,99009.17
2019-01-04T23:12:29.588Z,99011.03
2019-01-04T23:15:20.020Z,99011.03
2019-01-04T23:18:08.520Z,98993.09
2019-01-04T23:20:56.977Z,99002.31
2019-01-04T23:23:46.069Z,99010.50
2019-01-04T23:26:34.370Z,99001.32
2019-01-04T23:29:22.186Z,99001.07
2019-01-04T23:35:17.503Z,98995.13
2019-01-04T23:38:01.192Z,98980.66
2019-01-04T23:40:43.616Z,98984.95
2019-01-04T23:43:32.065Z,98988.84
2019-01-04T23:46:20.678Z,98979.16
2019-01-04T23:49:08.922Z,98983.75
2019-01-04T23:51:57.778Z,98983.75
2019-01-04T23:54:46.138Z,98978.09
2019-01-04T23:57:34.978Z,98967.67
